Time;durP1;ratioP1;P1;durP2;ratioP2;P2;SDS_P1;SDS_P2;PMS_P1;PMS_P2;Temp;Humidity;BMP_temperature;BMP_pressure;BME280_temperature;BME280_humidity;BME280_pressure;Samples;Min_cycle;Max_cycle;Signal;HPM_P1;HPM_P2
2022/04/15 00:02:21;;;;;;;7.47;5.67;;;;;;;12.40;74.93;100955.25;1771383;79;20997;-72
2022/04/15 00:04:48;;;;;;;10.88;6.40;;;;;;;12.38;75.11;100960.55;1778492;79;21592;-74
2022/04/15 00:07:15;;;;;;;6.40;5.60;;;;;;;12.37;75.17;100952.27;1765322;80;21162;-74
2022/04/15 00:09:42;;;;;;;8.58;6.20;;;;;;;12.37;75.28;100950.10;1775779;79;21457;-75
2022/04/15 00:12:17;;;;;;;7.95;5.70;;;;;;;12.34;75.18;100939.23;1783851;79;21023;-76
2022/04/15 00:14:39;;;;;;;8.53;5.53;;;;;;;12.31;75.28;100955.58;1758106;79;21005;-74
2022/04/15 00:17:06;;;;;;;7.30;5.50;;;;;;;12.26;75.25;100953.11;1753337;80;21178;-74
2022/04/15 00:19:33;;;;;;;6.03;5.30;;;;;;;12.23;75.47;100946.19;1755066;80;21129;-74
2022/04/15 00:22:00;;;;;;;8.53;5.50;;;;;;;12.22;75.50;100945.80;1749610;79;21112;-74
2022/04/15 00:24:28;;;;;;;7.78;5.58;;;;;;;12.22;75.62;100940.97;1758736;80;20994;-76
2022/04/15 00:26:55;;;;;;;6.20;5.17;;;;;;;12.20;75.68;100937.56;1762461;80;21464;-74
2022/04/15 00:29:22;;;;;;;8.58;4.97;;;;;;;12.18;75.85;100944.17;1752751;80;21541;-77
2022/04/15 00:31:48;;;;;;;5.78;5.17;;;;;;;12.17;75.97;100943.78;1752873;80;21279;-74
2022/04/15 00:34:15;;;;;;;8.55;5.40;;;;;;;12.17;76.10;100940.30;1767552;80;20966;-73
2022/04/15 00:36:42;;;;;;;7.83;5.50;;;;;;;12.19;76.20;100936.70;1770095;80;20964;-76
2022/04/15 00:39:10;;;;;;;8.03;5.00;;;;;;;12.18;76.20;100931.03;1771914;80;20974;-74
2022/04/15 00:41:39;;;;;;;6.20;5.30;;;;;;;12.18;76.29;100927.09;1761775;80;21076;-77
2022/04/15 00:44:06;;;;;;;7.80;5.20;;;;;;;12.19;76.39;100924.00;1731482;80;21181;-75
2022/04/15 00:46:34;;;;;;;8.30;4.85;;;;;;;12.18;76.35;100928.86;1743962;80;21067;-74
2022/04/15 00:49:01;;;;;;;6.67;5.17;;;;;;;12.16;76.38;100929.36;1769981;79;20998;-74
2022/04/15 00:51:29;;;;;;;9.00;4.83;;;;;;;12.13;76.17;100930.79;1763382;80;21123;-74
2022/04/15 00:53:58;;;;;;;7.40;4.77;;;;;;;12.10;76.14;100926.95;1772498;80;21554;-74
2022/04/15 00:56:29;;;;;;;5.57;4.53;;;;;;;12.05;76.12;100922.73;1765277;80;21681;-74
2022/04/15 00:58:58;;;;;;;6.45;4.67;;;;;;;12.03;76.08;100921.92;1757414;80;21263;-77
2022/04/15 01:01:27;;;;;;;7.13;4.90;;;;;;;11.98;76.00;100922.53;1766736;79;21128;-75
2022/04/15 01:03:56;;;;;;;5.67;4.37;;;;;;;11.95;76.05;100925.73;1758477;79;20993;-74
2022/04/15 01:06:27;;;;;;;6.65;4.65;;;;;;;11.91;76.10;100928.89;1748743;79;21003;-74
2022/04/15 01:08:58;;;;;;;6.03;4.50;;;;;;;11.87;76.20;100927.76;1760482;80;21678;-77
2022/04/15 01:11:28;;;;;;;7.23;5.03;;;;;;;11.85;76.44;100930.39;1778917;80;20988;-76
2022/04/15 01:14:00;;;;;;;9.20;5.57;;;;;;;11.83;76.45;100933.09;1775954;78;21506;-77
2022/04/15 01:16:30;;;;;;;6.55;4.55;;;;;;;11.80;76.45;100935.79;1768153;80;20973;-77
2022/04/15 01:18:57;;;;;;;6.57;4.37;;;;;;;11.78;76.51;100937.63;1760607;80;21020;-76
2022/04/15 01:21:27;;;;;;;5.93;4.23;;;;;;;11.77;76.55;100935.05;1758386;80;21121;-76
2022/04/15 01:23:58;;;;;;;7.37;4.80;;;;;;;11.75;76.69;100929.86;1762309;79;21005;-76
2022/04/15 01:26:26;;;;;;;7.23;4.60;;;;;;;11.72;76.68;100933.91;1770495;80;21024;-76
2022/04/15 01:28:52;;;;;;;6.03;4.63;;;;;;;11.70;76.62;100937.02;1770441;80;21529;-74
2022/04/15 01:31:20;;;;;;;6.43;4.63;;;;;;;11.68;76.78;100927.02;1761315;80;21036;-74
2022/04/15 01:33:47;;;;;;;7.00;4.97;;;;;;;11.68;76.84;100930.95;1751610;80;21119;-75
2022/04/15 01:36:14;;;;;;;5.83;4.30;;;;;;;11.67;76.81;100921.84;1760111;80;21005;-75
2022/04/15 01:38:41;;;;;;;5.43;4.30;;;;;;;11.65;76.91;100913.99;1740471;81;20993;-76
2022/04/15 01:41:08;;;;;;;5.53;4.53;;;;;;;11.65;76.97;100913.14;1734531;80;21048;-77
2022/04/15 01:43:35;;;;;;;6.63;4.67;;;;;;;11.62;76.92;100924.60;1762913;80;20973;-73
2022/04/15 01:46:02;;;;;;;6.70;4.13;;;;;;;11.56;76.80;100932.23;1761642;80;21177;-73
2022/04/15 01:48:29;;;;;;;7.60;4.33;;;;;;;11.54;76.88;100926.62;1775781;80;20974;-75
2022/04/15 01:50:56;;;;;;;5.63;4.27;;;;;;;11.52;76.85;100931.91;1755688;80;21069;-74
2022/04/15 01:53:23;;;;;;;6.20;4.60;;;;;;;11.50;76.87;100926.30;1754035;80;21384;-76
2022/04/15 01:55:50;;;;;;;6.37;4.27;;;;;;;11.46;76.90;100919.45;1768012;80;21738;-75
2022/04/15 01:58:18;;;;;;;7.03;4.83;;;;;;;11.44;77.05;100923.88;1761677;79;21100;-73
2022/04/15 02:00:45;;;;;;;6.53;4.67;;;;;;;11.39;77.06;100928.84;1747157;81;21021;-73
2022/04/15 02:03:11;;;;;;;8.83;4.53;;;;;;;11.33;76.78;100929.47;1763167;79;21006;-73
2022/04/15 02:05:38;;;;;;;8.00;5.23;;;;;;;11.28;77.13;100931.37;1772358;80;21513;-74
2022/04/15 02:08:07;;;;;;;7.77;5.00;;;;;;;11.28;77.31;100939.24;1763206;80;21177;-73
2022/04/15 02:10:34;;;;;;;6.60;4.87;;;;;;;11.27;77.50;100941.47;1751641;80;21206;-76
2022/04/15 02:13:01;;;;;;;7.93;4.53;;;;;;;11.27;77.48;100938.39;1762953;79;20985;-73
2022/04/15 02:15:28;;;;;;;8.17;4.17;;;;;;;11.29;77.61;100933.11;1756066;79;22392;-76
2022/04/15 02:17:55;;;;;;;7.63;5.07;;;;;;;11.29;77.54;100934.42;1763539;80;20974;-76
2022/04/15 02:20:22;;;;;;;7.13;5.20;;;;;;;11.26;77.46;100939.31;1744127;81;21021;-73
2022/04/15 02:22:51;;;;;;;6.73;5.40;;;;;;;11.23;77.65;100931.53;1758867;80;21466;-73
2022/04/15 02:25:18;;;;;;;7.47;5.13;;;;;;;11.22;77.72;100927.63;1765917;80;21259;-73
2022/04/15 02:27:45;;;;;;;6.43;5.03;;;;;;;11.19;77.74;100935.14;1764759;80;21013;-74
2022/04/15 02:30:12;;;;;;;7.80;5.03;;;;;;;11.17;77.95;100936.98;1762345;80;21004;-75
2022/04/15 02:32:39;;;;;;;10.83;6.13;;;;;;;11.17;78.12;100933.05;1776044;80;21051;-74
2022/04/15 02:35:08;;;;;;;7.93;5.90;;;;;;;11.17;78.21;100935.67;1777402;80;21116;-74
2022/04/15 02:37:35;;;;;;;10.63;6.47;;;;;;;11.16;78.31;100938.72;1777536;80;20981;-73
2022/04/15 02:40:04;;;;;;;8.00;6.00;;;;;;;11.16;78.40;100931.31;1769155;80;20898;-73
2022/04/15 02:42:31;;;;;;;9.70;6.37;;;;;;;11.16;78.46;100928.69;1775895;79;20875;-73
2022/04/15 02:44:59;;;;;;;8.10;6.37;;;;;;;11.16;78.59;100923.44;1771705;79;21585;-73
2022/04/15 02:47:28;;;;;;;8.33;6.40;;;;;;;11.19;78.74;100927.27;1757026;80;21052;-73
2022/04/15 02:49:55;;;;;;;9.23;7.27;;;;;;;11.18;78.92;100923.41;1773545;80;21465;-73
2022/04/15 02:52:22;;;;;;;9.80;7.70;;;;;;;11.19;78.97;100922.02;1728797;80;21033;-74
2022/04/15 02:54:49;;;;;;;8.40;7.30;;;;;;;11.21;78.89;100925.92;1727720;82;21006;-73
2022/04/15 02:57:16;;;;;;;9.47;8.30;;;;;;;11.21;79.00;100922.84;1732722;80;21067;-75
2022/04/15 02:59:43;;;;;;;11.17;8.60;;;;;;;11.23;79.12;100926.75;1759939;80;21932;-75
2022/04/15 03:02:10;;;;;;;12.87;8.80;;;;;;;11.23;79.23;100914.94;1744560;81;21008;-72
2022/04/15 03:04:37;;;;;;;10.53;8.87;;;;;;;11.24;79.22;100920.12;1778119;79;21506;-72
2022/04/15 03:07:05;;;;;;;11.10;9.90;;;;;;;11.24;79.18;100912.25;1705183;83;21024;-73
2022/04/15 03:09:32;;;;;;;11.20;9.23;;;;;;;11.22;79.29;100911.43;1714425;82;21672;-73
2022/04/15 03:11:59;;;;;;;10.57;8.90;;;;;;;11.23;79.30;100909.69;1723430;82;21094;-73
2022/04/15 03:14:26;;;;;;;13.03;10.43;;;;;;;11.24;79.42;100917.50;1766847;80;21075;-75
2022/04/15 03:16:53;;;;;;;11.40;9.43;;;;;;;11.25;79.42;100915.30;1755631;80;20986;-73
2022/04/15 03:19:20;;;;;;;12.80;10.40;;;;;;;11.25;79.49;100913.98;1765487;80;21025;-75
2022/04/15 03:21:47;;;;;;;13.97;10.80;;;;;;;11.25;79.36;100913.98;1753106;80;21592;-73
2022/04/15 03:24:15;;;;;;;14.87;11.23;;;;;;;11.23;79.43;100912.31;1762137;80;21781;-72
2022/04/15 03:26:43;;;;;;;17.23;12.17;;;;;;;11.20;79.32;100901.46;1754663;80;21003;-73
2022/04/15 03:29:10;;;;;;;15.10;10.83;;;;;;;11.16;79.25;100900.67;1765034;80;21043;-76
2022/04/15 03:31:37;;;;;;;13.57;11.03;;;;;;;11.12;79.38;100901.69;1762495;80;20989;-73
2022/04/15 03:34:03;;;;;;;19.50;11.93;;;;;;;11.09;79.41;100901.80;1761571;80;21238;-73
2022/04/15 03:36:31;;;;;;;14.30;11.77;;;;;;;11.07;79.27;100907.53;1760592;79;21084;-72
2022/04/15 03:38:58;;;;;;;14.50;11.47;;;;;;;11.03;79.26;100904.61;1762633;80;21056;-73
2022/04/15 03:41:25;;;;;;;14.37;11.30;;;;;;;11.01;79.22;100908.19;1759613;79;20983;-72
2022/04/15 03:43:52;;;;;;;13.47;10.60;;;;;;;10.93;79.13;100905.33;1778957;79;20976;-72
2022/04/15 03:46:19;;;;;;;12.07;10.50;;;;;;;10.88;79.11;100909.85;1762447;79;21066;-72
2022/04/15 03:48:46;;;;;;;11.70;10.47;;;;;;;10.83;79.23;100901.26;1740658;80;21062;-72
2022/04/15 03:51:13;;;;;;;12.87;10.63;;;;;;;10.80;79.25;100901.81;1737903;82;21061;-72
2022/04/15 03:53:40;;;;;;;10.77;9.60;;;;;;;10.74;79.26;100902.00;1740764;80;21052;-72
2022/04/15 03:56:07;;;;;;;13.07;10.53;;;;;;;10.73;79.47;100899.84;1773784;79;20978;-75
2022/04/15 03:58:35;;;;;;;14.70;11.27;;;;;;;10.73;79.52;100904.23;1767946;80;21157;-74
2022/04/15 04:01:02;;;;;;;13.70;10.83;;;;;;;10.71;79.47;100901.64;1765677;80;21106;-72
2022/04/15 04:03:29;;;;;;;15.67;11.40;;;;;;;10.69;79.47;100902.98;1759085;80;20985;-77
2022/04/15 04:05:56;;;;;;;16.27;12.37;;;;;;;10.67;79.36;100911.83;1752056;80;21411;-72
2022/04/15 04:08:23;;;;;;;16.87;13.33;;;;;;;10.61;79.25;100905.42;1775197;80;21025;-73
2022/04/15 04:10:50;;;;;;;20.63;14.20;;;;;;;10.55;79.29;100913.02;1796557;79;21149;-73
2022/04/15 04:13:17;;;;;;;19.03;13.87;;;;;;;10.52;79.52;100920.97;1771289;79;21121;-72
2022/04/15 04:15:44;;;;;;;17.07;14.57;;;;;;;10.51;79.69;100924.97;1771209;78;21052;-74
2022/04/15 04:18:14;;;;;;;18.97;14.83;;;;;;;10.50;79.65;100924.08;1779564;79;20945;-76
2022/04/15 04:20:40;;;;;;;18.17;14.43;;;;;;;10.51;79.91;100929.75;1775185;79;21072;-76
2022/04/15 04:23:07;;;;;;;19.63;14.93;;;;;;;10.51;79.97;100923.66;1792255;79;21148;-73
2022/04/15 04:25:34;;;;;;;17.93;14.10;;;;;;;10.51;80.07;100928.89;1775473;78;21186;-75
2022/04/15 04:28:01;;;;;;;17.47;14.83;;;;;;;10.52;80.16;100926.67;1774707;79;20990;-72
2022/04/15 04:30:28;;;;;;;21.63;15.13;;;;;;;10.55;80.28;100925.27;1777566;79;21384;-74
2022/04/15 04:32:58;;;;;;;18.80;14.43;;;;;;;10.56;80.25;100925.23;1792964;79;21471;-75
2022/04/15 04:35:27;;;;;;;17.90;15.70;;;;;;;10.59;80.47;100927.77;1784682;79;21005;-72
2022/04/15 04:37:54;;;;;;;19.50;15.23;;;;;;;10.63;80.40;100937.70;1775943;79;21487;-75
2022/04/15 04:40:21;;;;;;;16.80;15.00;;;;;;;10.65;80.41;100931.52;1776411;79;21031;-72
2022/04/15 04:42:51;;;;;;;20.40;15.73;;;;;;;10.69;80.59;100929.66;1772376;78;20996;-74
2022/04/15 04:45:19;;;;;;;18.00;15.00;;;;;;;10.70;80.49;100930.94;1790800;79;20997;-73
2022/04/15 04:47:47;;;;;;;22.07;16.03;;;;;;;10.75;80.65;100930.78;1773103;79;21650;-73
2022/04/15 04:50:15;;;;;;;22.13;15.90;;;;;;;10.77;80.49;100927.67;1740722;80;21366;-74
2022/04/15 04:52:42;;;;;;;26.67;18.53;;;;;;;10.78;80.56;100929.41;1754310;80;21565;-77
2022/04/15 04:55:09;;;;;;;23.57;16.80;;;;;;;10.83;80.61;100934.50;1771272;79;20997;-73
2022/04/15 04:57:38;;;;;;;24.13;17.83;;;;;;;10.84;80.57;100934.92;1736600;80;21053;-72
2022/04/15 05:00:07;;;;;;;21.70;18.53;;;;;;;10.87;80.43;100939.62;1729860;79;21516;-72
2022/04/15 05:02:35;;;;;;;23.73;18.90;;;;;;;10.87;80.41;100938.30;1737756;81;21269;-72
2022/04/15 05:05:04;;;;;;;24.07;18.43;;;;;;;10.90;80.62;100939.98;1739646;82;21246;-73
2022/04/15 05:07:32;;;;;;;21.37;17.37;;;;;;;10.94;80.66;100941.59;1725461;82;21013;-75
2022/04/15 05:09:59;;;;;;;21.77;17.63;;;;;;;10.95;80.47;100944.64;1724301;81;21024;-73
2022/04/15 05:12:26;;;;;;;24.43;18.60;;;;;;;10.99;80.53;100940.16;1744181;79;21025;-76
2022/04/15 05:14:53;;;;;;;22.43;17.50;;;;;;;10.99;80.31;100948.02;1748895;80;21946;-76
2022/04/15 05:17:20;;;;;;;21.60;17.63;;;;;;;11.02;80.48;100950.09;1758501;80;21046;-76
2022/04/15 05:19:48;;;;;;;21.60;17.23;;;;;;;11.05;80.31;100946.52;1773155;79;21029;-76
2022/04/15 05:22:16;;;;;;;20.37;16.67;;;;;;;11.06;80.51;100942.55;1753095;79;21045;-76
2022/04/15 05:24:43;;;;;;;20.03;17.27;;;;;;;11.11;80.36;100944.59;1761728;80;21036;-76
2022/04/15 05:27:10;;;;;;;22.73;18.57;;;;;;;11.14;80.49;100941.87;1766113;79;21118;-75
2022/04/15 05:29:37;;;;;;;20.63;17.33;;;;;;;11.19;80.42;100949.58;1802338;79;20962;-72
2022/04/15 05:32:04;;;;;;;20.30;17.70;;;;;;;11.22;80.50;100949.48;1797481;79;21079;-74
2022/04/15 05:34:31;;;;;;;20.47;16.97;;;;;;;11.27;80.47;100953.28;1803016;79;20977;-73
2022/04/15 05:36:58;;;;;;;23.47;18.00;;;;;;;11.31;80.56;100949.67;1792565;79;21008;-72
2022/04/15 05:39:25;;;;;;;23.07;19.33;;;;;;;11.34;80.48;100954.36;1782873;79;21095;-72
2022/04/15 05:41:52;;;;;;;23.27;18.77;;;;;;;11.38;80.32;100952.49;1761542;79;21779;-72
2022/04/15 05:44:19;;;;;;;26.37;20.87;;;;;;;11.39;80.28;100951.61;1781172;79;21467;-72
2022/04/15 05:46:46;;;;;;;22.20;18.73;;;;;;;11.43;80.14;100951.05;1787510;79;21001;-73
2022/04/15 05:49:14;;;;;;;24.63;18.12;;;;;;;11.45;80.21;100950.09;1768205;79;21115;-73
2022/04/15 05:51:42;;;;;;;19.90;17.17;;;;;;;11.52;80.19;100948.12;1792640;79;21094;-74
2022/04/15 05:54:10;;;;;;;21.90;17.53;;;;;;;11.59;80.28;100947.02;1776009;79;21033;-72
2022/04/15 05:56:37;;;;;;;20.25;17.48;;;;;;;11.66;80.13;100947.67;1764301;79;20990;-72
2022/04/15 05:59:04;;;;;;;19.77;16.55;;;;;;;11.67;79.83;100955.52;1786167;79;21499;-74
2022/04/15 06:01:31;;;;;;;21.03;18.03;;;;;;;11.66;79.58;100959.02;1762250;79;20982;-73
2022/04/15 06:03:58;;;;;;;19.93;16.43;;;;;;;11.66;79.42;100964.27;1796683;79;21179;-73
2022/04/15 06:06:25;;;;;;;19.07;15.90;;;;;;;11.66;79.47;100968.22;1788135;79;21002;-74
2022/04/15 06:08:53;;;;;;;20.40;17.23;;;;;;;11.69;79.45;100969.42;1784230;79;21012;-73
2022/04/15 06:11:21;;;;;;;21.73;18.17;;;;;;;11.74;79.50;100966.66;1761543;80;21012;-72
2022/04/15 06:13:49;;;;;;;23.63;18.13;;;;;;;11.80;79.29;100972.55;1761736;80;21008;-75
2022/04/15 06:16:17;;;;;;;21.43;17.07;;;;;;;11.85;79.32;100965.85;1764883;80;21562;-76
2022/04/15 06:18:44;;;;;;;19.00;16.70;;;;;;;11.95;79.48;100965.98;1768533;80;21005;-73
2022/04/15 06:21:12;;;;;;;18.50;16.35;;;;;;;12.03;79.10;100972.30;1786967;79;21056;-75
2022/04/15 06:23:39;;;;;;;18.77;15.48;;;;;;;12.06;78.95;100973.52;1754956;79;20994;-75
2022/04/15 06:26:10;;;;;;;21.70;17.15;;;;;;;12.10;78.93;100970.31;1762948;80;21488;-77
2022/04/15 06:28:35;;;;;;;21.95;16.73;;;;;;;12.14;78.60;100983.31;1766869;80;21315;-75
2022/04/15 06:31:05;;;;;;;18.70;16.57;;;;;;;12.14;78.42;100979.36;1717383;82;21005;-71
2022/04/15 06:33:32;;;;;;;21.00;17.15;;;;;;;12.11;78.15;100980.79;1706394;82;21084;-73
2022/04/15 06:36:02;;;;;;;20.70;17.40;;;;;;;12.14;78.30;100986.36;1734587;81;21627;-77
2022/04/15 06:38:29;;;;;;;17.95;15.95;;;;;;;12.17;78.21;100983.66;1741191;80;21091;-76
2022/04/15 06:40:57;;;;;;;21.27;17.62;;;;;;;12.22;78.21;100985.22;1747335;80;21557;-77
2022/04/15 06:43:25;;;;;;;19.40;16.70;;;;;;;12.33;78.12;100995.80;1752327;80;21090;-76
2022/04/15 06:45:52;;;;;;;19.55;16.45;;;;;;;12.34;77.93;100988.33;1759522;80;21095;-74
2022/04/15 06:48:19;;;;;;;19.90;16.35;;;;;;;12.36;77.79;100987.37;1750856;80;21083;-76
2022/04/15 06:50:46;;;;;;;20.10;16.55;;;;;;;12.39;77.71;100989.03;1711459;81;21098;-75
2022/04/15 06:53:13;;;;;;;18.25;15.98;;;;;;;12.39;77.57;100979.83;1683644;82;21083;-76
2022/04/15 06:55:40;;;;;;;19.07;16.97;;;;;;;12.44;77.54;100977.44;1691766;83;21063;-74
2022/04/15 06:58:08;;;;;;;19.57;15.65;;;;;;;12.52;77.74;100981.09;1695074;83;20993;-75
2022/04/15 07:00:36;;;;;;;17.85;15.05;;;;;;;12.64;77.70;100983.75;1704850;83;21103;-75
2022/04/15 07:03:04;;;;;;;22.52;15.83;;;;;;;12.74;77.62;100982.48;1705287;81;21096;-78
2022/04/15 07:05:31;;;;;;;17.80;14.35;;;;;;;12.87;77.32;100989.48;1706776;81;21524;-76
2022/04/15 07:07:58;;;;;;;17.95;14.93;;;;;;;12.99;76.88;100982.43;1692316;83;21687;-77
2022/04/15 07:10:25;;;;;;;16.87;14.75;;;;;;;13.15;76.82;100978.77;1703641;81;21516;-80
2022/04/15 07:12:52;;;;;;;20.52;15.60;;;;;;;13.35;76.69;100982.81;1703195;81;20976;-75
2022/04/15 07:15:20;;;;;;;19.57;14.15;;;;;;;13.43;76.00;100982.52;1704524;83;21064;-79
2022/04/15 07:17:47;;;;;;;15.83;13.20;;;;;;;13.47;75.76;100986.77;1709499;83;21140;-77
2022/04/15 07:20:14;;;;;;;17.92;14.45;;;;;;;13.44;75.28;100985.58;1701908;83;21052;-78
2022/04/15 07:22:41;;;;;;;17.23;14.07;;;;;;;13.39;74.86;100987.52;1711327;83;21052;-76
2022/04/15 07:25:09;;;;;;;18.57;14.83;;;;;;;13.26;74.50;100993.72;1725440;82;21573;-78
2022/04/15 07:27:36;;;;;;;16.80;14.13;;;;;;;13.17;74.44;100990.09;1696603;82;21623;-82
2022/04/15 07:30:05;;;;;;;16.82;14.47;;;;;;;13.05;74.23;100993.18;1669896;83;21075;-78
2022/04/15 07:32:32;;;;;;;16.32;13.15;;;;;;;12.91;74.19;100999.84;1708662;81;21773;-78
2022/04/15 07:35:01;;;;;;;16.70;14.63;;;;;;;12.77;74.23;101002.09;1719332;82;21052;-76
2022/04/15 07:37:28;;;;;;;20.08;14.87;;;;;;;12.66;74.48;101007.74;1736291;81;21257;-77
2022/04/15 07:39:55;;;;;;;20.20;16.75;;;;;;;12.43;74.75;101011.66;1703425;82;21457;-75
2022/04/15 07:42:22;;;;;;;25.15;17.25;;;;;;;12.14;75.38;101006.95;1717702;82;21091;-77
2022/04/15 07:44:49;;;;;;;24.60;18.15;;;;;;;11.91;75.97;101004.22;1726010;82;21064;-77
2022/04/15 07:47:16;;;;;;;21.75;17.45;;;;;;;11.68;76.45;101011.05;1686743;83;21187;-78
2022/04/15 07:49:43;;;;;;;22.05;17.60;;;;;;;11.46;77.10;101016.56;1692805;83;21103;-77
2022/04/15 07:52:11;;;;;;;25.37;19.12;;;;;;;11.36;78.03;101014.23;1679104;82;21634;-76
2022/04/15 07:54:38;;;;;;;23.73;19.00;;;;;;;11.30;78.13;101018.80;1707672;82;21133;-75
2022/04/15 07:57:05;;;;;;;21.90;17.23;;;;;;;11.22;78.88;101019.47;1702814;82;21084;-76
2022/04/15 07:59:32;;;;;;;23.75;18.75;;;;;;;11.19;79.51;101019.11;1671907;81;21445;-74
2022/04/15 08:02:00;;;;;;;21.50;18.30;;;;;;;11.13;79.78;101017.53;1669861;82;21009;-76
2022/04/15 08:04:28;;;;;;;22.80;18.27;;;;;;;11.11;80.14;101027.66;1698938;82;21612;-78
2022/04/15 08:06:55;;;;;;;25.35;18.90;;;;;;;11.06;80.38;101026.95;1711983;82;21231;-75
2022/04/15 08:09:22;;;;;;;23.10;17.73;;;;;;;10.98;80.42;101028.94;1765798;80;21031;-78
2022/04/15 08:11:49;;;;;;;22.00;18.02;;;;;;;10.94;81.24;101026.38;1753292;79;21041;-78
2022/04/15 08:14:16;;;;;;;23.93;19.43;;;;;;;10.96;81.68;101021.56;1760190;80;21019;-76
2022/04/15 08:16:43;;;;;;;23.20;19.53;;;;;;;10.94;81.27;101027.69;1744459;80;21079;-78
2022/04/15 08:19:10;;;;;;;23.02;19.80;;;;;;;10.86;81.54;101032.33;1760066;80;21537;-79
2022/04/15 08:21:37;;;;;;;21.57;19.17;;;;;;;10.83;81.97;101031.06;1757999;79;21005;-80
2022/04/15 08:24:05;;;;;;;22.33;19.23;;;;;;;10.80;82.10;101032.92;1764696;79;21032;-79
2022/04/15 08:26:34;;;;;;;22.37;18.27;;;;;;;10.77;82.27;101033.87;1768133;80;21616;-77
2022/04/15 08:29:01;;;;;;;23.17;18.43;;;;;;;10.76;82.47;101030.84;1776613;80;21464;-78
2022/04/15 08:31:28;;;;;;;22.40;18.13;;;;;;;10.76;82.44;101032.62;1756018;80;21156;-77
2022/04/15 08:33:55;;;;;;;21.10;17.67;;;;;;;10.72;82.56;101033.13;1763972;79;20988;-79
2022/04/15 08:36:22;;;;;;;22.53;18.73;;;;;;;10.77;82.97;101032.55;1773245;79;21544;-77
2022/04/15 08:38:49;;;;;;;22.07;18.57;;;;;;;10.78;82.94;101033.41;1764815;80;21056;-77
2022/04/15 08:41:18;;;;;;;22.67;19.33;;;;;;;10.79;83.09;101035.15;1755788;80;21484;-75
2022/04/15 08:43:45;;;;;;;23.93;18.57;;;;;;;10.82;83.54;101038.53;1772124;80;21796;-75
2022/04/15 08:46:13;;;;;;;23.93;18.73;;;;;;;10.85;83.30;101042.84;1776251;80;21516;-78
2022/04/15 08:48:40;;;;;;;25.53;20.17;;;;;;;10.81;83.52;101045.12;1760698;80;21532;-79
2022/04/15 08:51:08;;;;;;;14.77;13.27;;;;;;;10.77;83.39;101048.29;1752929;80;21062;-78
2022/04/15 08:53:37;;;;;;;16.37;13.17;;;;;;;10.69;82.78;101051.57;1762047;80;21484;-77
2022/04/15 08:56:05;;;;;;;16.80;12.93;;;;;;;10.49;82.53;101066.06;1768793;80;21644;-78
2022/04/15 08:58:33;;;;;;;17.10;13.53;;;;;;;10.37;82.44;101062.47;1762702;79;21020;-78
2022/04/15 09:01:01;;;;;;;17.07;12.67;;;;;;;10.27;82.84;101055.27;1758766;79;21027;-76
2022/04/15 09:03:28;;;;;;;16.43;11.67;;;;;;;10.24;82.82;101064.95;1774871;79;21056;-79
2022/04/15 09:05:56;;;;;;;14.60;10.90;;;;;;;10.25;83.33;101062.72;1779539;78;21484;-79
2022/04/15 09:08:25;;;;;;;13.77;10.00;;;;;;;10.37;83.64;101069.47;1760921;79;21116;-81
2022/04/15 09:10:59;;;;;;;10.30;8.30;;;;;;;10.43;83.39;101068.85;1749802;79;21040;-88
2022/04/15 09:13:30;;;;;;;10.33;6.70;;;;;;;10.59;83.68;101061.45;1770339;79;21045;-77
2022/04/15 09:15:58;;;;;;;8.10;6.47;;;;;;;10.70;83.09;101056.78;1757171;78;20997;-80
2022/04/15 09:18:38;;;;;;;7.85;6.30;;;;;;;10.73;83.05;101057.61;1740976;80;21371;-77
2022/04/15 09:21:24;;;;;;;7.40;6.20;;;;;;;10.83;83.46;101062.99;1673931;84;21381;-83
2022/04/15 09:23:56;;;;;;;8.45;6.85;;;;;;;10.85;82.87;101050.70;1688136;83;21071;-84
2022/04/15 09:26:24;;;;;;;7.03;5.85;;;;;;;10.90;83.40;101055.38;1717097;81;21064;-76
2022/04/15 09:28:58;;;;;;;7.70;5.97;;;;;;;10.91;82.68;101063.64;1700094;82;21076;-78
2022/04/15 09:31:24;;;;;;;5.67;5.03;;;;;;;10.84;82.65;101055.09;1697708;82;21043;-76
2022/04/15 09:34:00;;;;;;;6.72;5.33;;;;;;;10.99;82.93;101056.88;1698267;82;21184;-78
2022/04/15 09:36:38;;;;;;;6.15;5.47;;;;;;;11.24;83.54;101055.27;1748785;80;20985;-74
2022/04/15 09:39:11;;;;;;;6.17;5.08;;;;;;;11.42;83.21;101061.75;1765139;79;21028;-75
2022/04/15 09:41:40;;;;;;;5.90;5.08;;;;;;;11.52;82.63;101062.31;1775721;80;21114;-77
2022/04/15 09:44:13;;;;;;;5.50;4.72;;;;;;;11.60;82.28;101055.06;1766083;79;21069;-77
2022/04/15 09:46:45;;;;;;;7.17;4.70;;;;;;;11.74;82.04;101062.52;1769973;80;21174;-76
2022/04/15 09:49:13;;;;;;;5.20;4.70;;;;;;;11.87;81.29;101064.34;1757117;81;21040;-75
2022/04/15 09:51:47;;;;;;;5.83;4.65;;;;;;;12.00;81.38;101053.39;1754155;80;21581;-78
2022/04/15 09:54:23;;;;;;;7.25;6.30;;;;;;;12.32;81.25;101059.80;1759655;80;21037;-77
2022/04/15 09:56:52;;;;;;;7.72;6.83;;;;;;;12.46;80.87;101058.88;1756660;79;21028;-79
2022/04/15 09:59:23;;;;;;;7.20;6.50;;;;;;;12.40;80.04;101065.20;1743302;81;21170;-77
2022/04/15 10:01:56;;;;;;;9.58;7.47;;;;;;;12.26;79.45;101071.38;1764992;79;21025;-74
2022/04/15 10:04:24;;;;;;;9.90;7.35;;;;;;;12.20;79.37;101076.85;1762916;80;21076;-74
2022/04/15 10:06:52;;;;;;;8.30;7.20;;;;;;;12.37;79.44;101065.31;1699805;82;21460;-78
2022/04/15 10:09:20;;;;;;;9.48;7.60;;;;;;;12.62;79.21;101075.84;1748245;80;21105;-76
2022/04/15 10:11:48;;;;;;;9.03;7.60;;;;;;;12.76;79.29;101079.77;1765785;79;21104;-78
2022/04/15 10:14:17;;;;;;;10.20;8.13;;;;;;;12.83;79.08;101079.94;1739115;79;21024;-80
2022/04/15 10:16:44;;;;;;;10.93;9.35;;;;;;;12.83;78.33;101079.50;1742770;79;21109;-75
2022/04/15 10:19:12;;;;;;;13.18;10.08;;;;;;;12.69;77.34;101089.20;1738367;79;21578;-76
2022/04/15 10:21:52;;;;;;;12.00;9.78;;;;;;;12.52;77.24;101091.52;1745165;79;20996;-73
2022/04/15 10:24:25;;;;;;;12.82;10.45;;;;;;;12.48;77.14;101086.83;1738700;79;21041;-74
2022/04/15 10:27:00;;;;;;;15.45;11.08;;;;;;;12.42;77.18;101091.45;1766649;79;21086;-75
2022/04/15 10:29:27;;;;;;;13.78;10.72;;;;;;;12.27;76.73;101102.00;1753308;80;21139;-74
2022/04/15 10:31:55;;;;;;;13.78;10.63;;;;;;;12.04;76.96;101095.73;1743977;79;21064;-73
2022/04/15 10:34:22;;;;;;;15.23;10.23;;;;;;;11.81;76.24;101106.94;1754220;79;21294;-73
2022/04/15 10:36:52;;;;;;;18.07;9.98;;;;;;;11.67;76.69;101107.81;1742765;79;21068;-74
2022/04/15 10:39:25;;;;;;;13.75;10.53;;;;;;;11.55;76.64;101111.64;1736646;81;21088;-73
2022/04/15 10:41:55;;;;;;;14.30;10.40;;;;;;;11.45;76.71;101114.61;1743190;80;20916;-74
2022/04/15 10:44:37;;;;;;;13.65;10.43;;;;;;;11.39;77.29;101108.63;1765166;80;21039;-74
2022/04/15 10:47:22;;;;;;;10.82;9.73;;;;;;;11.39;77.42;101115.20;1733020;80;21260;-77
2022/04/15 10:50:05;;;;;;;13.30;9.78;;;;;;;11.34;77.39;101126.27;1749234;79;21542;-73
2022/04/15 10:52:34;;;;;;;13.25;9.55;;;;;;;11.26;77.17;101116.90;1748165;79;21056;-78
2022/04/15 10:55:06;;;;;;;12.15;8.68;;;;;;;11.24;77.26;101118.70;1742597;79;21000;-75
2022/04/15 10:57:37;;;;;;;11.25;8.15;;;;;;;11.25;77.44;101115.16;1742061;79;21019;-77
2022/04/15 11:03:20;;;;;;;9.03;7.27;;;;;;;11.27;77.25;101122.09;1748336;79;21182;-78
2022/04/15 11:05:53;;;;;;;8.93;7.27;;;;;;;11.38;77.66;101113.91;1756949;79;20988;-78
2022/04/15 11:08:25;;;;;;;9.95;7.40;;;;;;;11.37;77.36;101117.45;1766455;78;21084;-77
2022/04/15 11:11:02;;;;;;;9.80;6.90;;;;;;;11.37;76.90;101121.39;1760595;79;21037;-78
2022/04/15 11:13:40;;;;;;;7.33;6.47;;;;;;;11.31;76.82;101122.88;1753585;79;21067;-78
2022/04/15 11:16:13;;;;;;;7.25;6.08;;;;;;;11.48;77.04;101125.88;1734072;79;21225;-78
2022/04/15 11:18:55;;;;;;;7.05;6.35;;;;;;;11.75;76.93;101117.63;1726282;81;20951;-76
2022/04/15 11:21:40;;;;;;;7.80;5.70;;;;;;;12.01;76.92;101125.19;1750126;79;21503;-77
2022/04/15 11:24:10;;;;;;;6.65;5.70;;;;;;;12.04;76.13;101131.20;1735030;80;21005;-76
2022/04/15 11:26:42;;;;;;;6.87;6.03;;;;;;;11.95;75.90;101131.95;1735009;81;21294;-76